Time;durP1;ratioP1;P1;durP2;ratioP2;P2;SDS_P1;SDS_P2;PMS_P1;PMS_P2;Temp;Humidity;BMP_temperature;BMP_pressure;BME280_temperature;BME280_humidity;BME280_pressure;Samples;Min_cycle;Max_cycle;Signal;HPM_P1;HPM_P2
2023/05/07 00:02:11;;;;;;;2.30;2.13;;;;;;;;;;5057875;28;20730;-30
2023/05/07 00:04:38;;;;;;;3.53;1.83;;;;;;;;;;5058480;28;20217;-29
2023/05/07 00:07:07;;;;;;;1.93;1.70;;;;;;;;;;5054274;28;20222;-28
2023/05/07 00:09:34;;;;;;;4.30;2.87;;;;;;;;;;5064312;28;20208;-29
2023/05/07 00:12:01;;;;;;;2.20;1.97;;;;;;;;;;5056484;28;20208;-28
2023/05/07 00:14:28;;;;;;;2.73;2.40;;;;;;;;;;5058850;28;20229;-28
2023/05/07 00:16:55;;;;;;;2.33;2.13;;;;;;;;;;5057415;28;20316;-28
2023/05/07 00:19:22;;;;;;;3.10;2.30;;;;;;;;;;5069056;28;20301;-29
2023/05/07 00:21:49;;;;;;;3.30;2.10;;;;;;;;;;5053780;28;20208;-31
2023/05/07 00:24:18;;;;;;;2.67;2.47;;;;;;;;;;5051487;28;20270;-26
2023/05/07 00:26:45;;;;;;;2.80;2.50;;;;;;;;;;5052909;28;20233;-29
2023/05/07 00:29:12;;;;;;;3.03;2.30;;;;;;;;;;5054026;28;20213;-26
2023/05/07 00:31:39;;;;;;;5.73;2.77;;;;;;;;;;5059205;28;20202;-29
2023/05/07 00:34:06;;;;;;;2.60;2.40;;;;;;;;;;5054680;28;20606;-28
2023/05/07 00:36:33;;;;;;;3.40;2.60;;;;;;;;;;5067138;28;20880;-28
2023/05/07 00:39:03;;;;;;;3.20;2.37;;;;;;;;;;5057487;28;20236;-26
2023/05/07 00:41:31;;;;;;;2.10;1.93;;;;;;;;;;5054797;28;20252;-26
2023/05/07 00:43:58;;;;;;;3.20;2.50;;;;;;;;;;5052829;28;20217;-26
2023/05/07 00:46:26;;;;;;;3.10;2.27;;;;;;;;;;5063635;28;20229;-29
2023/05/07 00:48:53;;;;;;;2.67;2.13;;;;;;;;;;5074477;28;20212;-28
2023/05/07 00:51:20;;;;;;;4.87;2.20;;;;;;;;;;5093768;28;20232;-29
2023/05/07 00:53:48;;;;;;;3.57;2.10;;;;;;;;;;5065831;28;20648;-28
2023/05/07 00:56:15;;;;;;;4.57;2.70;;;;;;;;;;5061854;28;20225;-27
2023/05/07 00:58:44;;;;;;;4.87;2.13;;;;;;;;;;5053369;28;20279;-29
2023/05/07 01:01:11;;;;;;;1.93;1.83;;;;;;;;;;5064009;28;20212;-29
2023/05/07 01:03:38;;;;;;;3.57;1.80;;;;;;;;;;5063149;28;20652;-29
2023/05/07 01:06:06;;;;;;;3.47;2.27;;;;;;;;;;5072853;28;20229;-29
2023/05/07 01:08:34;;;;;;;2.13;1.63;;;;;;;;;;5073367;28;20216;-28
2023/05/07 01:11:02;;;;;;;1.90;1.80;;;;;;;;;;5053685;28;20202;-29
2023/05/07 01:13:29;;;;;;;2.10;1.80;;;;;;;;;;5061890;28;20217;-29
2023/05/07 01:15:57;;;;;;;1.83;1.73;;;;;;;;;;5065716;28;20244;-30
2023/05/07 01:18:25;;;;;;;1.90;1.80;;;;;;;;;;5064240;28;20236;-25
2023/05/07 01:20:53;;;;;;;5.60;2.07;;;;;;;;;;5073114;28;20263;-29
2023/05/07 01:23:21;;;;;;;4.13;1.80;;;;;;;;;;5072920;28;20201;-31
2023/05/07 01:25:52;;;;;;;4.97;2.33;;;;;;;;;;5061680;28;20586;-29
2023/05/07 01:28:19;;;;;;;1.90;1.80;;;;;;;;;;5049441;28;20652;-27
2023/05/07 01:30:48;;;;;;;1.90;1.80;;;;;;;;;;5058354;28;20640;-26
2023/05/07 01:33:17;;;;;;;2.70;2.50;;;;;;;;;;5049619;28;20202;-30
2023/05/07 01:35:47;;;;;;;2.40;2.13;;;;;;;;;;5049211;28;20222;-28
2023/05/07 01:38:14;;;;;;;1.87;1.67;;;;;;;;;;5048685;28;20237;-29
2023/05/07 01:40:43;;;;;;;5.47;2.07;;;;;;;;;;5049796;28;20210;-29
2023/05/07 01:43:12;;;;;;;2.37;1.90;;;;;;;;;;5066080;28;20221;-30
2023/05/07 01:45:39;;;;;;;2.20;2.00;;;;;;;;;;5052064;28;20245;-28
2023/05/07 01:48:07;;;;;;;3.20;1.90;;;;;;;;;;5049814;28;20217;-28
2023/05/07 01:50:35;;;;;;;2.00;1.80;;;;;;;;;;5069501;28;20215;-29
2023/05/07 01:53:03;;;;;;;2.30;1.60;;;;;;;;;;5059788;28;20198;-30
2023/05/07 01:55:30;;;;;;;1.70;1.60;;;;;;;;;;5049106;28;20217;-30
2023/05/07 01:57:57;;;;;;;3.23;1.70;;;;;;;;;;5064833;28;20217;-32
2023/05/07 02:00:26;;;;;;;3.27;2.50;;;;;;;;;;5062880;28;20201;-30
2023/05/07 02:02:53;;;;;;;2.70;1.50;;;;;;;;;;5051656;28;20208;-28
2023/05/07 02:05:20;;;;;;;4.73;1.87;;;;;;;;;;5051054;28;20226;-29
2023/05/07 02:07:47;;;;;;;4.53;1.97;;;;;;;;;;5052657;28;20203;-27
2023/05/07 02:10:15;;;;;;;2.10;1.90;;;;;;;;;;5051556;28;20283;-30
2023/05/07 02:12:42;;;;;;;1.97;1.87;;;;;;;;;;5052522;28;20212;-29
2023/05/07 02:15:10;;;;;;;2.17;2.03;;;;;;;;;;5056370;28;20228;-26
2023/05/07 02:17:40;;;;;;;1.43;1.40;;;;;;;;;;5058446;28;20221;-30
2023/05/07 02:20:13;;;;;;;2.50;1.60;;;;;;;;;;5051487;28;20198;-28
2023/05/07 02:22:50;;;;;;;2.10;1.90;;;;;;;;;;5051990;28;20202;-27
2023/05/07 02:25:17;;;;;;;3.83;2.00;;;;;;;;;;5055579;28;20841;-26
2023/05/07 02:27:44;;;;;;;2.33;2.07;;;;;;;;;;5072025;28;20215;-30
2023/05/07 02:30:11;;;;;;;2.33;1.97;;;;;;;;;;5060768;28;20206;-27
2023/05/07 02:32:40;;;;;;;2.87;1.60;;;;;;;;;;5059568;28;20538;-27
2023/05/07 02:35:07;;;;;;;2.40;2.20;;;;;;;;;;5052853;28;20271;-30
2023/05/07 02:37:35;;;;;;;2.57;1.97;;;;;;;;;;5052461;28;20217;-30
2023/05/07 02:40:03;;;;;;;2.40;1.53;;;;;;;;;;5060671;28;20209;-30
2023/05/07 02:42:30;;;;;;;2.13;1.93;;;;;;;;;;5060714;28;20648;-31
2023/05/07 02:44:57;;;;;;;1.90;1.80;;;;;;;;;;5051487;28;20256;-27
2023/05/07 02:47:26;;;;;;;2.20;1.67;;;;;;;;;;5052458;28;20206;-31
2023/05/07 02:49:55;;;;;;;1.80;1.70;;;;;;;;;;5051124;28;20237;-30
2023/05/07 02:52:22;;;;;;;1.63;1.53;;;;;;;;;;5050522;28;20300;-31
2023/05/07 02:54:49;;;;;;;1.80;1.63;;;;;;;;;;5071228;28;20205;-30
2023/05/07 02:57:16;;;;;;;2.30;1.80;;;;;;;;;;5054430;28;20209;-30
2023/05/07 02:59:43;;;;;;;2.00;1.90;;;;;;;;;;5066244;28;20202;-28
2023/05/07 03:02:10;;;;;;;4.63;2.03;;;;;;;;;;5056921;28;20210;-31
2023/05/07 03:04:37;;;;;;;2.03;1.70;;;;;;;;;;5075859;28;20205;-28
2023/05/07 03:07:06;;;;;;;2.10;2.00;;;;;;;;;;5075494;28;20225;-30
2023/05/07 03:09:33;;;;;;;2.47;1.90;;;;;;;;;;5061511;28;20201;-28
2023/05/07 03:12:01;;;;;;;2.40;2.20;;;;;;;;;;5066144;28;20205;-27
2023/05/07 03:14:28;;;;;;;4.37;1.70;;;;;;;;;;5068015;28;20213;-28
2023/05/07 03:16:55;;;;;;;4.70;1.60;;;;;;;;;;5064112;28;20257;-29
2023/05/07 03:19:22;;;;;;;1.90;1.80;;;;;;;;;;5055050;28;20236;-30
2023/05/07 03:21:50;;;;;;;2.57;1.80;;;;;;;;;;5055274;28;20214;-31
2023/05/07 03:24:18;;;;;;;2.93;1.70;;;;;;;;;;5055972;28;20271;-30
2023/05/07 03:26:45;;;;;;;1.70;1.60;;;;;;;;;;5065503;28;20683;-26
2023/05/07 03:29:12;;;;;;;1.80;1.70;;;;;;;;;;5057147;28;20204;-30
2023/05/07 03:31:39;;;;;;;15.30;2.10;;;;;;;;;;5065957;28;20208;-27
2023/05/07 03:34:06;;;;;;;3.77;2.17;;;;;;;;;;5074657;28;20193;-30
2023/05/07 03:36:34;;;;;;;2.10;1.83;;;;;;;;;;5074119;28;20225;-30
2023/05/07 03:39:01;;;;;;;1.90;1.80;;;;;;;;;;5070500;28;20213;-27
2023/05/07 03:41:29;;;;;;;2.10;2.00;;;;;;;;;;5060015;28;20292;-29
2023/05/07 03:43:57;;;;;;;2.77;1.73;;;;;;;;;;5052192;28;20206;-26
2023/05/07 03:46:25;;;;;;;2.40;1.67;;;;;;;;;;5056140;28;20225;-26
2023/05/07 03:48:53;;;;;;;1.80;1.63;;;;;;;;;;5068915;28;20259;-27
2023/05/07 03:51:20;;;;;;;2.10;1.70;;;;;;;;;;5074650;28;20213;-29
2023/05/07 03:53:47;;;;;;;1.83;1.70;;;;;;;;;;5070966;28;20205;-29
2023/05/07 03:56:14;;;;;;;3.77;1.80;;;;;;;;;;5065076;28;20225;-29
2023/05/07 03:58:42;;;;;;;1.83;1.73;;;;;;;;;;5067301;28;20224;-28
2023/05/07 04:01:09;;;;;;;2.50;1.70;;;;;;;;;;5053856;28;20213;-29
2023/05/07 04:03:37;;;;;;;2.57;1.83;;;;;;;;;;5058366;28;20202;-29
2023/05/07 04:06:04;;;;;;;1.83;1.73;;;;;;;;;;5074218;28;20221;-29
2023/05/07 04:08:31;;;;;;;2.97;1.73;;;;;;;;;;5070252;28;20204;-25
2023/05/07 04:10:59;;;;;;;1.90;1.70;;;;;;;;;;5062003;28;20201;-29
2023/05/07 04:13:26;;;;;;;3.17;1.67;;;;;;;;;;5053239;28;20205;-29
2023/05/07 04:15:55;;;;;;;5.33;1.90;;;;;;;;;;5054838;28;20228;-29
2023/05/07 04:18:22;;;;;;;2.13;1.90;;;;;;;;;;5054313;28;20225;-29
2023/05/07 04:20:50;;;;;;;3.43;2.10;;;;;;;;;;5053929;28;20301;-29
2023/05/07 04:23:17;;;;;;;1.70;1.60;;;;;;;;;;5057134;28;20612;-29
2023/05/07 04:25:45;;;;;;;1.70;1.60;;;;;;;;;;5052322;28;20226;-28
2023/05/07 04:28:12;;;;;;;1.70;1.60;;;;;;;;;;5069678;28;20201;-30
2023/05/07 04:30:39;;;;;;;1.93;1.80;;;;;;;;;;5064025;28;20253;-28
2023/05/07 04:33:08;;;;;;;3.53;1.47;;;;;;;;;;5055200;28;20259;-28
2023/05/07 04:35:35;;;;;;;1.73;1.60;;;;;;;;;;5052290;28;20221;-30
2023/05/07 04:38:02;;;;;;;1.57;1.43;;;;;;;;;;5065421;28;20226;-28
2023/05/07 04:40:29;;;;;;;1.70;1.60;;;;;;;;;;5073024;28;20605;-29
2023/05/07 04:42:56;;;;;;;2.80;1.90;;;;;;;;;;5073617;28;20288;-26
2023/05/07 04:45:24;;;;;;;2.00;1.80;;;;;;;;;;5065419;28;20240;-27
2023/05/07 04:47:51;;;;;;;2.00;1.90;;;;;;;;;;5067673;28;20304;-28
2023/05/07 04:50:20;;;;;;;2.33;1.70;;;;;;;;;;5073310;28;20652;-30
2023/05/07 04:52:47;;;;;;;1.60;1.50;;;;;;;;;;5072863;28;20721;-29
2023/05/07 04:55:14;;;;;;;1.70;1.60;;;;;;;;;;5056030;28;20229;-30
2023/05/07 04:57:41;;;;;;;1.77;1.67;;;;;;;;;;5059966;28;20202;-26
2023/05/07 05:00:09;;;;;;;2.10;1.63;;;;;;;;;;5053778;28;20202;-27
2023/05/07 05:02:37;;;;;;;1.93;1.83;;;;;;;;;;5072269;28;20201;-28
2023/05/07 05:05:04;;;;;;;2.40;1.50;;;;;;;;;;5072965;28;20217;-28
2023/05/07 05:07:32;;;;;;;7.10;1.80;;;;;;;;;;5054071;28;20206;-28
2023/05/07 05:09:59;;;;;;;1.70;1.60;;;;;;;;;;5053302;28;20202;-26
2023/05/07 05:12:27;;;;;;;1.63;1.53;;;;;;;;;;5061879;28;20209;-30
2023/05/07 05:14:54;;;;;;;1.70;1.60;;;;;;;;;;5050780;28;20557;-29
2023/05/07 05:17:21;;;;;;;2.07;1.87;;;;;;;;;;5055053;28;20206;-26
2023/05/07 05:19:48;;;;;;;4.77;2.40;;;;;;;;;;5052892;28;20217;-30
2023/05/07 05:22:15;;;;;;;2.60;1.60;;;;;;;;;;5053276;28;20210;-29
2023/05/07 05:24:44;;;;;;;2.63;1.83;;;;;;;;;;5059586;28;20232;-26
2023/05/07 05:27:11;;;;;;;1.53;1.43;;;;;;;;;;5062911;28;20694;-29
2023/05/07 05:29:38;;;;;;;2.60;1.40;;;;;;;;;;5068996;28;20198;-28
2023/05/07 05:32:05;;;;;;;3.03;1.77;;;;;;;;;;5054886;28;20213;-27
2023/05/07 05:34:33;;;;;;;1.50;1.40;;;;;;;;;;5051759;28;20198;-27
2023/05/07 05:37:00;;;;;;;1.97;1.70;;;;;;;;;;5062887;28;20225;-29
2023/05/07 05:39:27;;;;;;;2.03;1.70;;;;;;;;;;5070575;28;20217;-28
2023/05/07 05:41:56;;;;;;;2.90;1.70;;;;;;;;;;5064188;28;20198;-28
2023/05/07 05:44:23;;;;;;;1.97;1.83;;;;;;;;;;5046904;28;20297;-25
2023/05/07 05:49:18;;;;;;;2.40;1.60;;;;;;;;;;5090898;28;20295;-34
2023/05/07 05:51:48;;;;;;;2.03;1.80;;;;;;;;;;5093269;28;20208;-29
2023/05/07 05:54:16;;;;;;;2.00;1.80;;;;;;;;;;5081538;28;20805;-35
2023/05/07 05:56:43;;;;;;;1.80;1.70;;;;;;;;;;5070374;28;20322;-31
2023/05/07 05:59:12;;;;;;;1.57;1.47;;;;;;;;;;5069281;28;20252;-35
2023/05/07 06:01:39;;;;;;;2.20;1.90;;;;;;;;;;5070490;28;20208;-33
2023/05/07 06:04:06;;;;;;;1.83;1.70;;;;;;;;;;5071902;28;20391;-33
2023/05/07 06:06:33;;;;;;;2.97;1.93;;;;;;;;;;5065174;28;20237;-33
2023/05/07 06:09:03;;;;;;;2.33;2.07;;;;;;;;;;5053857;28;20201;-35
2023/05/07 06:11:30;;;;;;;2.10;1.90;;;;;;;;;;5068050;28;20314;-31
2023/05/07 06:14:03;;;;;;;1.80;1.70;;;;;;;;;;5068364;28;20251;-32
2023/05/07 06:16:31;;;;;;;2.13;2.00;;;;;;;;;;5068811;28;20702;-33
2023/05/07 06:18:58;;;;;;;2.13;1.70;;;;;;;;;;5069448;28;20217;-32
2023/05/07 06:21:26;;;;;;;2.23;1.80;;;;;;;;;;5070731;28;20567;-35
2023/05/07 06:23:54;;;;;;;2.33;1.60;;;;;;;;;;5070039;28;20205;-32
2023/05/07 06:26:23;;;;;;;1.77;1.67;;;;;;;;;;5070856;28;20216;-31
2023/05/07 06:28:51;;;;;;;2.03;1.73;;;;;;;;;;5076441;28;20276;-32
2023/05/07 06:31:20;;;;;;;2.00;1.90;;;;;;;;;;5066510;28;20327;-33
2023/05/07 06:33:49;;;;;;;2.27;2.07;;;;;;;;;;5072866;28;20230;-33
2023/05/07 06:36:17;;;;;;;2.50;1.73;;;;;;;;;;5072668;28;20238;-34
2023/05/07 06:38:44;;;;;;;2.07;1.87;;;;;;;;;;5060316;28;20227;-31
2023/05/07 06:41:11;;;;;;;3.67;2.20;;;;;;;;;;5060952;28;20221;-33
2023/05/07 06:43:38;;;;;;;2.13;2.00;;;;;;;;;;5070987;28;20216;-34
2023/05/07 06:46:05;;;;;;;2.40;2.17;;;;;;;;;;5066179;28;20218;-35
2023/05/07 06:48:32;;;;;;;3.03;2.10;;;;;;;;;;5074981;28;20209;-33
2023/05/07 06:51:01;;;;;;;2.07;1.70;;;;;;;;;;5071889;28;20208;-34
2023/05/07 06:53:29;;;;;;;1.60;1.50;;;;;;;;;;5069794;28;20292;-31
2023/05/07 06:55:56;;;;;;;1.77;1.67;;;;;;;;;;5070119;28;20225;-34
2023/05/07 06:58:23;;;;;;;4.37;2.07;;;;;;;;;;5073336;28;20202;-33
2023/05/07 07:00:50;;;;;;;3.00;1.90;;;;;;;;;;5070442;28;20207;-32
2023/05/07 07:03:23;;;;;;;3.10;2.00;;;;;;;;;;5075051;28;20203;-35
2023/05/07 07:05:53;;;;;;;2.90;1.83;;;;;;;;;;5070077;28;20223;-33
2023/05/07 07:08:22;;;;;;;2.13;2.03;;;;;;;;;;5069479;28;20214;-32
2023/05/07 07:10:49;;;;;;;3.90;1.90;;;;;;;;;;5074630;28;20203;-35
2023/05/07 07:13:16;;;;;;;2.00;1.90;;;;;;;;;;5074660;28;20215;-35
2023/05/07 07:15:43;;;;;;;1.50;1.40;;;;;;;;;;5059395;28;20222;-35
2023/05/07 07:18:10;;;;;;;1.90;1.70;;;;;;;;;;5071343;28;20378;-33
2023/05/07 07:20:37;;;;;;;2.03;1.60;;;;;;;;;;5072106;28;20232;-35
2023/05/07 07:23:04;;;;;;;3.03;1.70;;;;;;;;;;5069492;28;20220;-34
2023/05/07 07:25:33;;;;;;;1.93;1.77;;;;;;;;;;5068403;28;20312;-34
2023/05/07 07:28:00;;;;;;;1.93;1.70;;;;;;;;;;5071382;28;20200;-35
2023/05/07 07:30:27;;;;;;;2.03;1.83;;;;;;;;;;5067310;28;20200;-35
2023/05/07 07:33:00;;;;;;;1.60;1.50;;;;;;;;;;5074470;28;20288;-35
2023/05/07 07:35:27;;;;;;;1.50;1.40;;;;;;;;;;5074582;28;20229;-33
2023/05/07 07:37:54;;;;;;;2.97;2.10;;;;;;;;;;5071930;28;20212;-31
2023/05/07 07:40:21;;;;;;;1.67;1.57;;;;;;;;;;5073670;28;20221;-34
2023/05/07 07:42:51;;;;;;;1.98;1.70;;;;;;;;;;5074469;28;20201;-32
2023/05/07 07:45:18;;;;;;;1.60;1.50;;;;;;;;;;5060144;28;20233;-33
2023/05/07 07:47:45;;;;;;;3.22;1.60;;;;;;;;;;5064795;28;20217;-32
2023/05/07 07:50:12;;;;;;;1.77;1.67;;;;;;;;;;5072475;28;20639;-33
2023/05/07 07:52:53;;;;;;;4.20;1.58;;;;;;;;;;5068468;28;20205;-34
2023/05/07 07:55:22;;;;;;;1.63;1.52;;;;;;;;;;5070242;28;20232;-34
2023/05/07 07:57:51;;;;;;;1.70;1.60;;;;;;;;;;5065300;28;20685;-31
2023/05/07 08:00:18;;;;;;;2.40;1.92;;;;;;;;;;5066759;28;20226;-34
2023/05/07 08:02:45;;;;;;;2.25;1.67;;;;;;;;;;5072728;28;20271;-31
2023/05/07 08:05:12;;;;;;;1.85;1.75;;;;;;;;;;5064249;28;20596;-32
2023/05/07 08:07:39;;;;;;;2.78;1.65;;;;;;;;;;5054812;28;20216;-35
2023/05/07 08:10:07;;;;;;;1.58;1.52;;;;;;;;;;5060367;28;20194;-33
2023/05/07 08:12:34;;;;;;;1.85;1.73;;;;;;;;;;5071131;28;20227;-37
2023/05/07 08:15:03;;;;;;;3.53;1.85;;;;;;;;;;5061429;28;20211;-32
2023/05/07 08:17:30;;;;;;;1.70;1.60;;;;;;;;;;5069216;28;20568;-35
2023/05/07 08:19:57;;;;;;;3.88;1.90;;;;;;;;;;5069433;28;20256;-35
2023/05/07 08:22:24;;;;;;;2.03;1.90;;;;;;;;;;5067287;28;20667;-36
2023/05/07 08:24:53;;;;;;;1.67;1.58;;;;;;;;;;5064564;28;20202;-35
2023/05/07 08:27:20;;;;;;;2.72;2.03;;;;;;;;;;5070568;28;20213;-36
2023/05/07 08:29:47;;;;;;;2.00;1.80;;;;;;;;;;5062667;28;20201;-33
2023/05/07 08:32:16;;;;;;;2.50;2.30;;;;;;;;;;5069489;28;20225;-33
2023/05/07 08:34:43;;;;;;;2.75;2.35;;;;;;;;;;5057087;28;20213;-32
2023/05/07 08:37:10;;;;;;;2.33;2.10;;;;;;;;;;5049143;28;20206;-33
2023/05/07 08:39:37;;;;;;;3.25;1.90;;;;;;;;;;5062695;28;20224;-36
2023/05/07 08:42:05;;;;;;;2.10;2.00;;;;;;;;;;5070436;28;20232;-31
2023/05/07 08:44:34;;;;;;;2.55;2.35;;;;;;;;;;5060470;28;20224;-34
2023/05/07 08:47:02;;;;;;;2.45;2.25;;;;;;;;;;5066421;28;20283;-32
2023/05/07 08:49:30;;;;;;;4.35;2.53;;;;;;;;;;5069785;28;20203;-34
2023/05/07 08:51:57;;;;;;;2.33;2.10;;;;;;;;;;5072323;28;20206;-33
2023/05/07 08:54:25;;;;;;;2.78;2.20;;;;;;;;;;5063782;28;20205;-32
2023/05/07 08:56:52;;;;;;;3.08;2.40;;;;;;;;;;5070631;28;20237;-30
2023/05/07 08:59:19;;;;;;;2.30;2.10;;;;;;;;;;5067078;28;20226;-33
2023/05/07 09:01:47;;;;;;;2.35;2.17;;;;;;;;;;5063182;28;20199;-33
2023/05/07 09:04:14;;;;;;;2.50;2.00;;;;;;;;;;5069506;28;20206;-33
2023/05/07 09:06:43;;;;;;;1.90;1.80;;;;;;;;;;5070064;28;20226;-33
2023/05/07 09:09:10;;;;;;;3.78;2.30;;;;;;;;;;5066553;28;20205;-35
2023/05/07 09:11:37;;;;;;;1.70;1.55;;;;;;;;;;5070349;28;20648;-33
2023/05/07 09:14:04;;;;;;;2.90;1.75;;;;;;;;;;5063333;28;20202;-32
2023/05/07 09:16:32;;;;;;;2.55;1.65;;;;;;;;;;5062521;28;20217;-32
2023/05/07 09:18:59;;;;;;;2.05;1.85;;;;;;;;;;5069206;28;20676;-35
2023/05/07 09:21:27;;;;;;;2.17;1.50;;;;;;;;;;5071136;28;20222;-36
2023/05/07 09:23:56;;;;;;;1.73;1.58;;;;;;;;;;5067438;28;20207;-34
2023/05/07 09:26:23;;;;;;;1.75;1.65;;;;;;;;;;5061625;28;20223;-35
2023/05/07 09:28:50;;;;;;;1.73;1.58;;;;;;;;;;5067684;28;20202;-35
2023/05/07 09:31:17;;;;;;;2.00;1.90;;;;;;;;;;5062603;28;20202;-34
2023/05/07 09:33:45;;;;;;;3.17;1.70;;;;;;;;;;5069776;28;20199;-35
2023/05/07 09:36:12;;;;;;;1.77;1.48;;;;;;;;;;5069735;28;20278;-33
2023/05/07 09:38:39;;;;;;;4.88;1.75;;;;;;;;;;5061027;28;20209;-35
2023/05/07 09:41:09;;;;;;;1.70;1.60;;;;;;;;;;5065477;28;20213;-35
2023/05/07 09:43:36;;;;;;;2.20;1.80;;;;;;;;;;5069783;28;20735;-36
2023/05/07 09:46:08;;;;;;;1.65;1.55;;;;;;;;;;5053769;28;20227;-31
2023/05/07 09:48:39;;;;;;;2.05;1.45;;;;;;;;;;5061343;28;20216;-32
2023/05/07 09:51:13;;;;;;;2.13;1.92;;;;;;;;;;5069970;28;20198;-34
2023/05/07 09:53:42;;;;;;;2.35;1.85;;;;;;;;;;5057359;28;20205;-32
2023/05/07 09:56:11;;;;;;;2.45;1.70;;;;;;;;;;5066165;28;20221;-34
2023/05/07 09:58:39;;;;;;;1.60;1.50;;;;;;;;;;5069330;28;20213;-32
2023/05/07 10:01:06;;;;;;;2.55;1.77;;;;;;;;;;5062931;28;20221;-32
2023/05/07 10:03:35;;;;;;;2.38;1.70;;;;;;;;;;5061092;28;20193;-33
2023/05/07 10:06:02;;;;;;;3.45;1.58;;;;;;;;;;5069420;28;20233;-33
2023/05/07 10:08:30;;;;;;;4.95;3.00;;;;;;;;;;5069239;28;20212;-35
2023/05/07 10:10:57;;;;;;;1.50;1.40;;;;;;;;;;5067293;28;20197;-37
2023/05/07 10:13:26;;;;;;;5.47;3.25;;;;;;;;;;5072603;28;20372;-33
2023/05/07 10:15:53;;;;;;;1.85;1.75;;;;;;;;;;5066149;28;20221;-33
2023/05/07 10:18:23;;;;;;;2.47;1.65;;;;;;;;;;5072239;28;20224;-37
2023/05/07 10:20:51;;;;;;;2.20;1.70;;;;;;;;;;5073370;28;20629;-35
2023/05/07 10:23:21;;;;;;;4.60;2.08;;;;;;;;;;5068702;28;20217;-34
2023/05/07 10:25:48;;;;;;;1.92;1.52;;;;;;;;;;5072786;28;20229;-33
2023/05/07 10:28:17;;;;;;;2.08;1.48;;;;;;;;;;5064496;28;20197;-32
2023/05/07 10:30:50;;;;;;;1.50;1.40;;;;;;;;;;5061968;28;20198;-31
2023/05/07 10:33:18;;;;;;;1.70;1.60;;;;;;;;;;5058216;28;20675;-33
2023/05/07 10:35:46;;;;;;;2.20;1.50;;;;;;;;;;5074767;28;20221;-35
2023/05/07 10:38:14;;;;;;;2.17;1.60;;;;;;;;;;5064859;28;20209;-35
2023/05/07 10:40:41;;;;;;;2.90;1.48;;;;;;;;;;5066875;28;20236;-34
2023/05/07 10:43:08;;;;;;;2.45;1.67;;;;;;;;;;5070719;28;20201;-31
2023/05/07 10:45:36;;;;;;;2.30;1.45;;;;;;;;;;5063291;28;20306;-33
2023/05/07 10:48:11;;;;;;;1.42;1.33;;;;;;;;;;5072395;28;20209;-34
2023/05/07 10:50:38;;;;;;;2.28;2.08;;;;;;;;;;5073412;28;20191;-33
2023/05/07 10:53:28;;;;;;;1.52;1.40;;;;;;;;;;5061235;28;20201;-33
2023/05/07 10:56:10;;;;;;;1.40;1.30;;;;;;;;;;5067395;28;20229;-32
2023/05/07 10:58:37;;;;;;;1.63;1.52;;;;;;;;;;5066957;28;20198;-36
2023/05/07 11:01:04;;;;;;;2.92;1.10;;;;;;;;;;5064912;28;20275;-33
2023/05/07 11:03:33;;;;;;;2.72;1.38;;;;;;;;;;5063627;28;20202;-34
2023/05/07 11:06:13;;;;;;;1.38;1.27;;;;;;;;;;5063798;28;20224;-33
2023/05/07 11:08:56;;;;;;;1.58;1.48;;;;;;;;;;5065638;28;20207;-37
2023/05/07 11:11:38;;;;;;;5.28;2.00;;;;;;;;;;5068824;28;20498;-33
2023/05/07 11:14:05;;;;;;;1.73;1.60;;;;;;;;;;5067859;28;20541;-33
2023/05/07 11:16:36;;;;;;;1.67;1.48;;;;;;;;;;5065947;28;20229;-33
2023/05/07 11:19:05;;;;;;;1.90;1.50;;;;;;;;;;5071937;28;20212;-35
2023/05/07 11:21:39;;;;;;;2.42;1.75;;;;;;;;;;5073841;28;20224;-33
2023/05/07 11:24:07;;;;;;;2.85;1.60;;;;;;;;;;5063318;28;20197;-33
2023/05/07 11:26:44;;;;;;;1.75;1.33;;;;;;;;;;5074425;28;20248;-34
2023/05/07 11:29:15;;;;;;;3.28;1.73;;;;;;;;;;5063419;28;20220;-35
2023/05/07 11:31:42;;;;;;;1.88;1.30;;;;;;;;;;5067098;28;20216;-32
2023/05/07 11:34:11;;;;;;;5.68;1.40;;;;;;;;;;5070341;28;20193;-33
2023/05/07 11:36:43;;;;;;;2.33;1.25;;;;;;;;;;5072835;28;20775;-32
2023/05/07 11:39:24;;;;;;;2.67;1.55;;;;;;;;;;5060368;28;20263;-35
2023/05/07 11:41:52;;;;;;;2.58;1.52;;;;;;;;;;5072310;28;20225;-32
2023/05/07 11:44:19;;;;;;;1.20;1.20;;;;;;;;;;5068054;28;20217;-34
2023/05/07 11:46:46;;;;;;;1.40;1.30;;;;;;;;;;5066567;28;20229;-36
2023/05/07 11:49:15;;;;;;;2.88;1.40;;;;;;;;;;5069356;28;20216;-34
2023/05/07 11:51:42;;;;;;;1.88;1.35;;;;;;;;;;5072330;28;20335;-32
2023/05/07 11:54:11;;;;;;;1.70;1.40;;;;;;;;;;5063953;28;20205;-34
2023/05/07 11:56:38;;;;;;;1.33;1.17;;;;;;;;;;5063406;28;20758;-31
2023/05/07 11:59:06;;;;;;;2.03;1.65;;;;;;;;;;5066262;28;20201;-35
2023/05/07 12:01:33;;;;;;;3.47;1.48;;;;;;;;;;5066509;28;20362;-34
2023/05/07 12:04:04;;;;;;;2.78;1.60;;;;;;;;;;5070429;28;20201;-34
2023/05/07 12:06:37;;;;;;;1.42;1.20;;;;;;;;;;5070513;28;20217;-35
2023/05/07 12:09:04;;;;;;;1.58;1.40;;;;;;;;;;5065098;28;20253;-35
2023/05/07 12:11:31;;;;;;;1.83;1.45;;;;;;;;;;5058568;28;20527;-31
2023/05/07 12:13:59;;;;;;;1.25;1.13;;;;;;;;;;5060713;28;20208;-31
2023/05/07 12:16:26;;;;;;;1.83;1.73;;;;;;;;;;5057607;28;20221;-32
2023/05/07 12:18:54;;;;;;;2.05;1.45;;;;;;;;;;5067826;28;20209;-33
2023/05/07 12:21:21;;;;;;;2.38;1.50;;;;;;;;;;5063541;28;20218;-32
2023/05/07 12:23:50;;;;;;;1.95;1.42;;;;;;;;;;5067419;28;20217;-35
2023/05/07 12:26:17;;;;;;;2.85;1.27;;;;;;;;;;5065817;28;20232;-34
2023/05/07 12:28:44;;;;;;;1.30;1.20;;;;;;;;;;5070791;28;20201;-32
2023/05/07 12:31:11;;;;;;;1.42;1.33;;;;;;;;;;5064050;28;20205;-31
2023/05/07 12:33:39;;;;;;;1.33;1.20;;;;;;;;;;5069827;28;20201;-33
2023/05/07 12:36:08;;;;;;;2.25;2.05;;;;;;;;;;5067478;28;20229;-34
2023/05/07 12:38:38;;;;;;;2.20;1.50;;;;;;;;;;5066124;28;20262;-36
2023/05/07 12:41:08;;;;;;;2.72;1.48;;;;;;;;;;5070672;28;20308;-31
2023/05/07 12:43:35;;;;;;;1.83;1.30;;;;;;;;;;5058740;28;20603;-32
2023/05/07 12:46:03;;;;;;;1.80;1.30;;;;;;;;;;5058766;28;20225;-35
2023/05/07 12:48:30;;;;;;;1.70;1.60;;;;;;;;;;5073096;28;20216;-31
2023/05/07 12:50:57;;;;;;;1.38;1.30;;;;;;;;;;5073403;28;20285;-34
2023/05/07 12:53:25;;;;;;;1.70;1.30;;;;;;;;;;5066772;28;20205;-31
2023/05/07 12:55:54;;;;;;;2.15;1.70;;;;;;;;;;5053895;28;20228;-33
2023/05/07 12:58:24;;;;;;;1.02;1.02;;;;;;;;;;5068958;28;20204;-33
2023/05/07 13:00:52;;;;;;;2.88;1.42;;;;;;;;;;5063793;28;20750;-36
2023/05/07 13:03:23;;;;;;;2.33;1.40;;;;;;;;;;5068188;28;20258;-34
2023/05/07 13:05:50;;;;;;;1.23;1.23;;;;;;;;;;5069947;28;20275;-32
2023/05/07 13:08:25;;;;;;;1.33;1.17;;;;;;;;;;5058628;28;20202;-34
2023/05/07 13:10:52;;;;;;;1.67;1.13;;;;;;;;;;5069446;28;20201;-34
2023/05/07 13:13:20;;;;;;;2.57;1.30;;;;;;;;;;5056250;28;20201;-34
2023/05/07 13:15:48;;;;;;;1.30;1.20;;;;;;;;;;5061683;28;20217;-34
2023/05/07 13:18:15;;;;;;;1.93;1.17;;;;;;;;;;5067867;28;20713;-29
2023/05/07 13:20:43;;;;;;;3.00;1.30;;;;;;;;;;5063342;28;20228;-33
2023/05/07 13:23:10;;;;;;;2.77;1.10;;;;;;;;;;5063452;28;20209;-31
2023/05/07 13:25:37;;;;;;;2.00;1.20;;;;;;;;;;5072431;28;20234;-33
2023/05/07 13:28:04;;;;;;;1.47;1.07;;;;;;;;;;5073114;28;20205;-34
2023/05/07 13:30:32;;;;;;;2.40;1.00;;;;;;;;;;5056454;28;20208;-30
2023/05/07 13:33:00;;;;;;;1.13;0.80;;;;;;;;;;5067189;28;20550;-35
2023/05/07 13:35:27;;;;;;;1.00;1.00;;;;;;;;;;5069406;28;20329;-34
2023/05/07 13:37:55;;;;;;;1.47;1.37;;;;;;;;;;5066399;28;20223;-34
2023/05/07 13:40:22;;;;;;;3.73;1.60;;;;;;;;;;5063102;28;20266;-35
2023/05/07 13:42:50;;;;;;;1.53;1.30;;;;;;;;;;5068420;28;20229;-31
2023/05/07 13:45:17;;;;;;;3.10;1.53;;;;;;;;;;5064333;28;20221;-31
2023/05/07 13:47:45;;;;;;;1.70;1.20;;;;;;;;;;5071168;28;20212;-32
2023/05/07 13:50:14;;;;;;;1.90;1.80;;;;;;;;;;5055395;28;20202;-31
2023/05/07 13:52:43;;;;;;;3.53;1.83;;;;;;;;;;5058194;28;20211;-31
2023/05/07 13:55:11;;;;;;;4.87;2.03;;;;;;;;;;5059819;28;20300;-32
2023/05/07 13:57:38;;;;;;;3.83;1.80;;;;;;;;;;5069524;28;20256;-33
2023/05/07 14:00:06;;;;;;;3.13;1.97;;;;;;;;;;5062798;28;20212;-32
2023/05/07 14:02:33;;;;;;;5.47;2.20;;;;;;;;;;5069895;28;20233;-34
2023/05/07 14:05:00;;;;;;;1.97;1.87;;;;;;;;;;5071177;28;20294;-31
2023/05/07 14:07:30;;;;;;;2.90;1.90;;;;;;;;;;5062356;28;20643;-33
2023/05/07 14:09:58;;;;;;;4.20;1.90;;;;;;;;;;5065273;28;20261;-32
2023/05/07 14:12:25;;;;;;;2.17;1.37;;;;;;;;;;5062716;28;20200;-32
2023/05/07 14:14:52;;;;;;;1.60;1.50;;;;;;;;;;5065893;28;20208;-34
2023/05/07 14:17:19;;;;;;;1.40;1.30;;;;;;;;;;5065597;28;20226;-35
2023/05/07 14:19:47;;;;;;;1.40;1.30;;;;;;;;;;5069284;28;20599;-34
2023/05/07 14:22:15;;;;;;;2.57;1.20;;;;;;;;;;5066784;28;20227;-35
2023/05/07 14:24:43;;;;;;;1.63;1.33;;;;;;;;;;5061517;28;20234;-33
2023/05/07 14:27:11;;;;;;;1.20;1.10;;;;;;;;;;5068208;28;20199;-32
2023/05/07 14:29:38;;;;;;;1.20;1.10;;;;;;;;;;5063939;28;20211;-31
2023/05/07 14:32:05;;;;;;;3.40;1.40;;;;;;;;;;5069002;28;20199;-34
2023/05/07 14:34:32;;;;;;;3.40;1.10;;;;;;;;;;5067259;28;20262;-34
2023/05/07 14:36:59;;;;;;;2.17;1.20;;;;;;;;;;5069047;28;20223;-31
2023/05/07 14:39:27;;;;;;;3.30;1.07;;;;;;;;;;5065556;28;20212;-34
2023/05/07 14:41:55;;;;;;;0.93;0.70;;;;;;;;;;5066886;28;20716;-32
2023/05/07 14:44:23;;;;;;;2.20;1.20;;;;;;;;;;5065470;28;20203;-33
2023/05/07 14:46:50;;;;;;;2.07;1.30;;;;;;;;;;5066908;28;20230;-34
2023/05/07 14:49:17;;;;;;;2.00;1.30;;;;;;;;;;5068021;28;20217;-37
2023/05/07 14:51:45;;;;;;;1.83;1.30;;;;;;;;;;5065956;28;20205;-36